sensor_id;sensor_type;location;lat;lon;timestamp;temperature;humidity
298;DHT22;133;49.626;9.680;2024-01-10T00:00:20;-3.50;71.60
298;DHT22;133;49.626;9.680;2024-01-10T00:02:46;-3.50;71.20
298;DHT22;133;49.626;9.680;2024-01-10T00:05:12;-3.40;71.70
298;DHT22;133;49.626;9.680;2024-01-10T00:07:38;-3.50;71.60
298;DHT22;133;49.626;9.680;2024-01-10T00:10:04;-3.50;70.90
298;DHT22;133;49.626;9.680;2024-01-10T00:12:30;-3.60;70.50
298;DHT22;133;49.626;9.680;2024-01-10T00:15:03;-3.50;71.10
298;DHT22;133;49.626;9.680;2024-01-10T00:17:42;-3.50;71.90
298;DHT22;133;49.626;9.680;2024-01-10T00:20:13;-3.50;71.70
298;DHT22;133;49.626;9.680;2024-01-10T00:22:39;-3.50;72.50
298;DHT22;133;49.626;9.680;2024-01-10T00:25:05;-3.60;72.50
298;DHT22;133;49.626;9.680;2024-01-10T00:27:31;-3.70;72.30
298;DHT22;133;49.626;9.680;2024-01-10T00:29:57;-3.60;72.60
298;DHT22;133;49.626;9.680;2024-01-10T00:32:22;-3.70;72.80
298;DHT22;133;49.626;9.680;2024-01-10T00:34:48;-3.80;72.80
298;DHT22;133;49.626;9.680;2024-01-10T00:37:14;-3.80;72.40
298;DHT22;133;49.626;9.680;2024-01-10T00:39:39;-3.80;72.40
298;DHT22;133;49.626;9.680;2024-01-10T00:42:05;-3.90;72.90
298;DHT22;133;49.626;9.680;2024-01-10T00:44:31;-3.90;72.60
298;DHT22;133;49.626;9.680;2024-01-10T00:46:56;-3.90;72.10
298;DHT22;133;49.626;9.680;2024-01-10T00:49:22;-3.90;71.30
298;DHT22;133;49.626;9.680;2024-01-10T00:51:48;-3.90;72.10
298;DHT22;133;49.626;9.680;2024-01-10T00:54:13;-3.80;71.40
298;DHT22;133;49.626;9.680;2024-01-10T00:56:39;-3.80;70.30
298;DHT22;133;49.626;9.680;2024-01-10T00:59:08;-3.70;70.00
298;DHT22;133;49.626;9.680;2024-01-10T01:01:39;-3.70;69.20
298;DHT22;133;49.626;9.680;2024-01-10T01:04:08;-3.70;69.20
298;DHT22;133;49.626;9.680;2024-01-10T01:06:39;-3.70;70.10
298;DHT22;133;49.626;9.680;2024-01-10T01:09:16;-3.60;71.50
298;DHT22;133;49.626;9.680;2024-01-10T01:11:42;-3.70;71.00
298;DHT22;133;49.626;9.680;2024-01-10T01:14:10;-3.70;71.70
298;DHT22;133;49.626;9.680;2024-01-10T01:16:36;-3.70;71.10
298;DHT22;133;49.626;9.680;2024-01-10T01:19:01;-3.80;72.50
298;DHT22;133;49.626;9.680;2024-01-10T01:21:27;-3.80;71.90
298;DHT22;133;49.626;9.680;2024-01-10T01:23:53;-3.80;71.30
298;DHT22;133;49.626;9.680;2024-01-10T01:26:19;-3.70;70.90
298;DHT22;133;49.626;9.680;2024-01-10T01:28:45;-3.70;70.50
298;DHT22;133;49.626;9.680;2024-01-10T01:31:10;-3.70;70.60
298;DHT22;133;49.626;9.680;2024-01-10T01:33:36;-3.80;70.20
298;DHT22;133;49.626;9.680;2024-01-10T01:36:02;-3.70;70.50
298;DHT22;133;49.626;9.680;2024-01-10T01:38:28;-3.70;72.70
298;DHT22;133;49.626;9.680;2024-01-10T01:41:17;-3.70;72.50
298;DHT22;133;49.626;9.680;2024-01-10T01:44:06;-3.70;73.60
298;DHT22;133;49.626;9.680;2024-01-10T01:46:37;-3.80;72.20
298;DHT22;133;49.626;9.680;2024-01-10T01:49:05;-3.70;71.30
298;DHT22;133;49.626;9.680;2024-01-10T01:51:32;-3.70;72.70
298;DHT22;133;49.626;9.680;2024-01-10T01:54:00;-3.60;71.90
298;DHT22;133;49.626;9.680;2024-01-10T01:56:25;-3.60;72.10
298;DHT22;133;49.626;9.680;2024-01-10T01:58:52;-3.50;71.40
298;DHT22;133;49.626;9.680;2024-01-10T02:01:19;-3.60;70.50
298;DHT22;133;49.626;9.680;2024-01-10T02:03:47;-3.60;70.50
298;DHT22;133;49.626;9.680;2024-01-10T02:06:12;-3.50;70.50
298;DHT22;133;49.626;9.680;2024-01-10T02:08:38;-3.50;70.20
298;DHT22;133;49.626;9.680;2024-01-10T02:11:06;-3.50;70.00
298;DHT22;133;49.626;9.680;2024-01-10T02:13:33;-3.50;70.10
298;DHT22;133;49.626;9.680;2024-01-10T02:15:59;-3.50;70.70
298;DHT22;133;49.626;9.680;2024-01-10T02:18:33;-3.50;70.30
298;DHT22;133;49.626;9.680;2024-01-10T02:21:06;-3.50;70.20
298;DHT22;133;49.626;9.680;2024-01-10T02:23:37;-3.80;70.00
298;DHT22;133;49.626;9.680;2024-01-10T02:26:03;-3.70;70.40
298;DHT22;133;49.626;9.680;2024-01-10T02:28:35;-3.80;70.60
298;DHT22;133;49.626;9.680;2024-01-10T02:31:09;-4.00;71.00
298;DHT22;133;49.626;9.680;2024-01-10T02:33:35;-3.90;70.90
298;DHT22;133;49.626;9.680;2024-01-10T02:36:04;-3.80;71.50
298;DHT22;133;49.626;9.680;2024-01-10T02:38:32;-3.70;71.30
298;DHT22;133;49.626;9.680;2024-01-10T02:40:58;-3.70;72.70
298;DHT22;133;49.626;9.680;2024-01-10T02:43:26;-3.80;73.00
298;DHT22;133;49.626;9.680;2024-01-10T02:45:51;-3.70;73.60
298;DHT22;133;49.626;9.680;2024-01-10T02:48:17;-3.70;73.30
298;DHT22;133;49.626;9.680;2024-01-10T02:50:46;-3.70;72.50
298;DHT22;133;49.626;9.680;2024-01-10T02:53:14;-3.70;71.90
298;DHT22;133;49.626;9.680;2024-01-10T02:55:40;-3.60;72.40
298;DHT22;133;49.626;9.680;2024-01-10T02:58:07;-3.60;71.60
298;DHT22;133;49.626;9.680;2024-01-10T03:00:44;-3.60;72.90
298;DHT22;133;49.626;9.680;2024-01-10T03:03:39;-3.60;72.00
298;DHT22;133;49.626;9.680;2024-01-10T03:06:18;-3.70;71.30
298;DHT22;133;49.626;9.680;2024-01-10T03:11:33;-3.70;71.30
298;DHT22;133;49.626;9.680;2024-01-10T03:14:09;-3.70;71.10
298;DHT22;133;49.626;9.680;2024-01-10T03:16:36;-3.70;71.10
298;DHT22;133;49.626;9.680;2024-01-10T03:19:24;-3.70;70.90
298;DHT22;133;49.626;9.680;2024-01-10T03:21:53;-3.60;70.60
298;DHT22;133;49.626;9.680;2024-01-10T03:24:21;-3.60;72.30
298;DHT22;133;49.626;9.680;2024-01-10T03:26:58;-3.60;72.50
298;DHT22;133;49.626;9.680;2024-01-10T03:29:24;-3.60;72.90
298;DHT22;133;49.626;9.680;2024-01-10T03:31:50;-3.70;72.80
298;DHT22;133;49.626;9.680;2024-01-10T03:34:15;-3.70;72.70
298;DHT22;133;49.626;9.680;2024-01-10T03:36:48;-3.70;72.90
298;DHT22;133;49.626;9.680;2024-01-10T03:39:14;-3.60;72.80
298;DHT22;133;49.626;9.680;2024-01-10T03:41:40;-3.70;72.70
298;DHT22;133;49.626;9.680;2024-01-10T03:44:06;-3.60;73.60
298;DHT22;133;49.626;9.680;2024-01-10T03:46:32;-3.60;73.10
298;DHT22;133;49.626;9.680;2024-01-10T03:48:58;-3.60;74.20
298;DHT22;133;49.626;9.680;2024-01-10T03:51:24;-3.50;73.50
298;DHT22;133;49.626;9.680;2024-01-10T03:54:26;-3.60;72.60
298;DHT22;133;49.626;9.680;2024-01-10T03:57:04;-3.60;72.00
298;DHT22;133;49.626;9.680;2024-01-10T03:59:33;-3.60;70.90
298;DHT22;133;49.626;9.680;2024-01-10T04:02:21;-3.60;70.60
298;DHT22;133;49.626;9.680;2024-01-10T04:04:50;-3.50;70.60
298;DHT22;133;49.626;9.680;2024-01-10T04:07:32;-3.50;70.20
298;DHT22;133;49.626;9.680;2024-01-10T04:09:58;-3.30;70.30
298;DHT22;133;49.626;9.680;2024-01-10T04:12:24;-3.60;70.10
298;DHT22;133;49.626;9.680;2024-01-10T04:14:50;-3.80;70.60
298;DHT22;133;49.626;9.680;2024-01-10T04:17:15;-3.80;71.20
298;DHT22;133;49.626;9.680;2024-01-10T04:19:41;-3.70;72.50
298;DHT22;133;49.626;9.680;2024-01-10T04:22:07;-3.70;73.00
298;DHT22;133;49.626;9.680;2024-01-10T04:24:32;-3.50;73.70
298;DHT22;133;49.626;9.680;2024-01-10T04:26:58;-3.40;74.10
298;DHT22;133;49.626;9.680;2024-01-10T04:29:24;-3.30;74.10
298;DHT22;133;49.626;9.680;2024-01-10T04:31:50;-3.40;73.50
298;DHT22;133;49.626;9.680;2024-01-10T04:34:15;-3.50;73.10
298;DHT22;133;49.626;9.680;2024-01-10T04:36:41;-3.50;72.90
298;DHT22;133;49.626;9.680;2024-01-10T04:39:07;-3.50;73.00
298;DHT22;133;49.626;9.680;2024-01-10T04:41:33;-3.50;73.30
298;DHT22;133;49.626;9.680;2024-01-10T04:43:59;-3.40;72.60
298;DHT22;133;49.626;9.680;2024-01-10T04:46:25;-3.60;72.50
298;DHT22;133;49.626;9.680;2024-01-10T04:48:53;-3.60;72.80
298;DHT22;133;49.626;9.680;2024-01-10T04:51:19;-3.50;72.90
298;DHT22;133;49.626;9.680;2024-01-10T04:53:45;-3.60;73.60
298;DHT22;133;49.626;9.680;2024-01-10T04:56:10;-3.60;73.40
298;DHT22;133;49.626;9.680;2024-01-10T04:58:36;-3.60;75.40
298;DHT22;133;49.626;9.680;2024-01-10T05:01:02;-3.50;74.70
298;DHT22;133;49.626;9.680;2024-01-10T05:03:28;-3.50;73.70
298;DHT22;133;49.626;9.680;2024-01-10T05:05:54;-3.50;73.40
298;DHT22;133;49.626;9.680;2024-01-10T05:08:20;-3.50;72.80
298;DHT22;133;49.626;9.680;2024-01-10T05:10:46;-3.50;72.50
298;DHT22;133;49.626;9.680;2024-01-10T05:13:12;-3.50;73.40
298;DHT22;133;49.626;9.680;2024-01-10T05:15:38;-3.40;74.50
298;DHT22;133;49.626;9.680;2024-01-10T05:18:04;-3.40;74.70
298;DHT22;133;49.626;9.680;2024-01-10T05:20:29;-3.40;74.80
298;DHT22;133;49.626;9.680;2024-01-10T05:22:55;-3.40;75.20
298;DHT22;133;49.626;9.680;2024-01-10T05:25:24;-3.40;75.40
298;DHT22;133;49.626;9.680;2024-01-10T05:27:50;-3.40;76.20
298;DHT22;133;49.626;9.680;2024-01-10T05:30:16;-3.50;75.10
298;DHT22;133;49.626;9.680;2024-01-10T05:32:44;-3.60;75.40
298;DHT22;133;49.626;9.680;2024-01-10T05:35:09;-3.50;76.30
298;DHT22;133;49.626;9.680;2024-01-10T05:37:36;-3.40;76.40
298;DHT22;133;49.626;9.680;2024-01-10T05:40:03;-3.50;76.00
298;DHT22;133;49.626;9.680;2024-01-10T05:42:34;-3.60;76.60
298;DHT22;133;49.626;9.680;2024-01-10T05:45:00;-3.60;76.60
298;DHT22;133;49.626;9.680;2024-01-10T05:47:30;-3.60;76.60
298;DHT22;133;49.626;9.680;2024-01-10T05:50:00;-3.60;76.60
298;DHT22;133;49.626;9.680;2024-01-10T05:52:29;-3.70;76.00
298;DHT22;133;49.626;9.680;2024-01-10T05:55:01;-3.70;76.40
298;DHT22;133;49.626;9.680;2024-01-10T05:57:36;-3.80;77.20
298;DHT22;133;49.626;9.680;2024-01-10T06:00:15;-4.00;76.90
298;DHT22;133;49.626;9.680;2024-01-10T06:02:43;-4.00;77.10
298;DHT22;133;49.626;9.680;2024-01-10T06:05:10;-4.00;77.30
298;DHT22;133;49.626;9.680;2024-01-10T06:07:37;-4.00;77.90
298;DHT22;133;49.626;9.680;2024-01-10T06:10:09;-4.00;77.70
298;DHT22;133;49.626;9.680;2024-01-10T06:12:40;-4.10;78.00
298;DHT22;133;49.626;9.680;2024-01-10T06:15:09;-3.90;77.60
298;DHT22;133;49.626;9.680;2024-01-10T06:17:35;-3.80;75.70
298;DHT22;133;49.626;9.680;2024-01-10T06:20:01;-3.90;75.60
298;DHT22;133;49.626;9.680;2024-01-10T06:22:29;-3.90;75.70
298;DHT22;133;49.626;9.680;2024-01-10T06:24:54;-3.90;75.60
298;DHT22;133;49.626;9.680;2024-01-10T06:27:22;-3.80;75.60
298;DHT22;133;49.626;9.680;2024-01-10T06:29:48;-3.80;76.10
298;DHT22;133;49.626;9.680;2024-01-10T06:32:20;-3.80;77.00
298;DHT22;133;49.626;9.680;2024-01-10T06:34:52;-3.80;78.20
298;DHT22;133;49.626;9.680;2024-01-10T06:37:21;-3.90;77.90
298;DHT22;133;49.626;9.680;2024-01-10T06:39:52;-3.90;78.00
298;DHT22;133;49.626;9.680;2024-01-10T06:42:26;-3.90;78.20
298;DHT22;133;49.626;9.680;2024-01-10T06:44:55;-3.90;77.10
298;DHT22;133;49.626;9.680;2024-01-10T06:47:30;-3.90;76.60
298;DHT22;133;49.626;9.680;2024-01-10T06:49:56;-3.80;76.20
298;DHT22;133;49.626;9.680;2024-01-10T06:52:21;-3.80;75.60
298;DHT22;133;49.626;9.680;2024-01-10T06:54:47;-4.00;75.10
298;DHT22;133;49.626;9.680;2024-01-10T06:57:13;-4.00;75.30
298;DHT22;133;49.626;9.680;2024-01-10T06:59:39;-4.10;76.00
298;DHT22;133;49.626;9.680;2024-01-10T07:02:04;-4.10;76.70
298;DHT22;133;49.626;9.680;2024-01-10T07:04:30;-4.20;77.80
298;DHT22;133;49.626;9.680;2024-01-10T07:06:57;-4.20;77.80
298;DHT22;133;49.626;9.680;2024-01-10T07:09:23;-4.20;77.60
298;DHT22;133;49.626;9.680;2024-01-10T07:11:49;-4.20;77.90
298;DHT22;133;49.626;9.680;2024-01-10T07:14:15;-4.10;78.70
298;DHT22;133;49.626;9.680;2024-01-10T07:16:42;-4.20;78.40
298;DHT22;133;49.626;9.680;2024-01-10T07:19:13;-4.20;78.10
298;DHT22;133;49.626;9.680;2024-01-10T07:21:40;-4.20;77.70
298;DHT22;133;49.626;9.680;2024-01-10T07:24:12;-4.10;77.60
298;DHT22;133;49.626;9.680;2024-01-10T07:26:53;-4.00;77.50
298;DHT22;133;49.626;9.680;2024-01-10T07:29:22;-4.00;77.10
298;DHT22;133;49.626;9.680;2024-01-10T07:31:48;-4.00;76.70
298;DHT22;133;49.626;9.680;2024-01-10T07:34:14;-3.90;77.70
298;DHT22;133;49.626;9.680;2024-01-10T07:36:43;-3.90;77.50
298;DHT22;133;49.626;9.680;2024-01-10T07:39:09;-3.90;77.40
298;DHT22;133;49.626;9.680;2024-01-10T07:41:34;-3.90;76.80
298;DHT22;133;49.626;9.680;2024-01-10T07:44:00;-4.00;76.20
298;DHT22;133;49.626;9.680;2024-01-10T07:46:26;-3.90;76.20
298;DHT22;133;49.626;9.680;2024-01-10T07:48:52;-3.80;76.30
298;DHT22;133;49.626;9.680;2024-01-10T07:51:18;-3.80;76.90
298;DHT22;133;49.626;9.680;2024-01-10T07:53:45;-3.70;77.10
298;DHT22;133;49.626;9.680;2024-01-10T07:56:10;-3.70;77.30
298;DHT22;133;49.626;9.680;2024-01-10T07:58:38;-3.80;77.50
298;DHT22;133;49.626;9.680;2024-01-10T08:01:04;-3.70;77.60
298;DHT22;133;49.626;9.680;2024-01-10T08:03:29;-3.80;76.80
298;DHT22;133;49.626;9.680;2024-01-10T08:05:55;-3.90;75.80
298;DHT22;133;49.626;9.680;2024-01-10T08:08:21;-3.80;76.60
298;DHT22;133;49.626;9.680;2024-01-10T08:10:47;-3.70;76.90
298;DHT22;133;49.626;9.680;2024-01-10T08:13:13;-3.70;77.00
298;DHT22;133;49.626;9.680;2024-01-10T08:15:39;-3.60;76.50
298;DHT22;133;49.626;9.680;2024-01-10T08:18:04;-3.50;76.30
298;DHT22;133;49.626;9.680;2024-01-10T08:20:30;-3.50;75.80
298;DHT22;133;49.626;9.680;2024-01-10T08:23:06;-3.40;75.30
298;DHT22;133;49.626;9.680;2024-01-10T08:25:32;-3.30;76.20
298;DHT22;133;49.626;9.680;2024-01-10T08:28:06;-3.10;75.70
298;DHT22;133;49.626;9.680;2024-01-10T08:30:32;-3.00;75.90
298;DHT22;133;49.626;9.680;2024-01-10T08:33:01;-3.00;74.90
298;DHT22;133;49.626;9.680;2024-01-10T08:35:29;-2.90;74.80
298;DHT22;133;49.626;9.680;2024-01-10T08:37:55;-2.90;74.20
298;DHT22;133;49.626;9.680;2024-01-10T08:40:21;-2.70;74.40
298;DHT22;133;49.626;9.680;2024-01-10T08:42:53;-2.70;73.20
298;DHT22;133;49.626;9.680;2024-01-10T08:45:19;-2.70;73.90
298;DHT22;133;49.626;9.680;2024-01-10T08:47:44;-2.60;73.60
298;DHT22;133;49.626;9.680;2024-01-10T08:50:10;-2.50;73.60
298;DHT22;133;49.626;9.680;2024-01-10T08:52:36;-2.40;73.30
298;DHT22;133;49.626;9.680;2024-01-10T08:55:08;-2.30;72.90
298;DHT22;133;49.626;9.680;2024-01-10T08:57:34;-2.20;73.30
298;DHT22;133;49.626;9.680;2024-01-10T08:59:59;-2.20;73.20
298;DHT22;133;49.626;9.680;2024-01-10T09:02:25;-2.10;73.20
298;DHT22;133;49.626;9.680;2024-01-10T09:04:53;-2.40;72.70
298;DHT22;133;49.626;9.680;2024-01-10T09:07:19;-2.40;73.00
298;DHT22;133;49.626;9.680;2024-01-10T09:09:45;-2.30;72.90
298;DHT22;133;49.626;9.680;2024-01-10T09:12:11;-2.30;72.20
298;DHT22;133;49.626;9.680;2024-01-10T09:14:42;-2.20;72.30
298;DHT22;133;49.626;9.680;2024-01-10T09:17:07;-2.20;71.70
298;DHT22;133;49.626;9.680;2024-01-10T09:19:33;-2.10;72.30
298;DHT22;133;49.626;9.680;2024-01-10T09:21:59;-2.00;72.70
298;DHT22;133;49.626;9.680;2024-01-10T09:24:24;-2.00;72.60
298;DHT22;133;49.626;9.680;2024-01-10T09:26:52;-1.90;72.40
298;DHT22;133;49.626;9.680;2024-01-10T09:29:19;-1.80;71.60
298;DHT22;133;49.626;9.680;2024-01-10T09:31:44;-1.70;70.70
298;DHT22;133;49.626;9.680;2024-01-10T09:34:10;-1.60;71.40
298;DHT22;133;49.626;9.680;2024-01-10T09:36:35;-1.50;71.20
298;DHT22;133;49.626;9.680;2024-01-10T09:39:01;-1.40;71.40
298;DHT22;133;49.626;9.680;2024-01-10T09:41:32;-1.40;69.90
298;DHT22;133;49.626;9.680;2024-01-10T09:44:03;-1.40;69.60
298;DHT22;133;49.626;9.680;2024-01-10T09:46:30;-1.30;69.60
298;DHT22;133;49.626;9.680;2024-01-10T09:48:59;-1.30;69.60
298;DHT22;133;49.626;9.680;2024-01-10T09:51:28;-1.30;69.50
298;DHT22;133;49.626;9.680;2024-01-10T09:54:01;-1.10;69.70
298;DHT22;133;49.626;9.680;2024-01-10T09:56:33;-1.00;69.30
298;DHT22;133;49.626;9.680;2024-01-10T09:59:01;-0.90;69.50
298;DHT22;133;49.626;9.680;2024-01-10T10:01:27;-0.80;69.50
298;DHT22;133;49.626;9.680;2024-01-10T10:03:53;-0.60;69.10
298;DHT22;133;49.626;9.680;2024-01-10T10:06:23;-0.60;68.50
298;DHT22;133;49.626;9.680;2024-01-10T10:08:49;-0.50;68.50
298;DHT22;133;49.626;9.680;2024-01-10T10:11:15;-0.30;67.70
298;DHT22;133;49.626;9.680;2024-01-10T10:13:40;-0.20;67.40
298;DHT22;133;49.626;9.680;2024-01-10T10:16:08;-0.20;67.10
298;DHT22;133;49.626;9.680;2024-01-10T10:18:35;0.00;66.90
298;DHT22;133;49.626;9.680;2024-01-10T10:21:11;0.10;66.60
298;DHT22;133;49.626;9.680;2024-01-10T10:23:39;0.30;65.70
298;DHT22;133;49.626;9.680;2024-01-10T10:26:17;0.30;65.40
298;DHT22;133;49.626;9.680;2024-01-10T10:28:57;0.40;65.50
298;DHT22;133;49.626;9.680;2024-01-10T10:31:24;0.30;65.70
298;DHT22;133;49.626;9.680;2024-01-10T10:33:51;0.30;65.60
298;DHT22;133;49.626;9.680;2024-01-10T10:36:17;0.40;66.10
298;DHT22;133;49.626;9.680;2024-01-10T10:38:43;0.40;66.10
298;DHT22;133;49.626;9.680;2024-01-10T10:41:08;0.30;66.70
298;DHT22;133;49.626;9.680;2024-01-10T10:43:39;0.40;66.30
298;DHT22;133;49.626;9.680;2024-01-10T10:46:06;0.50;66.30
298;DHT22;133;49.626;9.680;2024-01-10T10:48:35;0.60;65.90
298;DHT22;133;49.626;9.680;2024-01-10T10:53:27;0.60;66.00
298;DHT22;133;49.626;9.680;2024-01-10T10:55:57;0.70;66.10
298;DHT22;133;49.626;9.680;2024-01-10T10:58:24;0.60;66.10
298;DHT22;133;49.626;9.680;2024-01-10T11:00:50;0.60;66.10
298;DHT22;133;49.626;9.680;2024-01-10T11:03:17;0.60;66.50
298;DHT22;133;49.626;9.680;2024-01-10T11:05:44;0.50;66.60
298;DHT22;133;49.626;9.680;2024-01-10T11:08:14;0.40;67.00
298;DHT22;133;49.626;9.680;2024-01-10T11:10:42;0.40;67.00
298;DHT22;133;49.626;9.680;2024-01-10T11:13:32;0.30;67.40
298;DHT22;133;49.626;9.680;2024-01-10T11:24:09;0.40;67.90
298;DHT22;133;49.626;9.680;2024-01-10T11:26:37;0.60;67.60
298;DHT22;133;49.626;9.680;2024-01-10T11:29:04;0.80;67.40
298;DHT22;133;49.626;9.680;2024-01-10T11:31:31;0.80;66.80
298;DHT22;133;49.626;9.680;2024-01-10T11:33:58;1.10;66.80
298;DHT22;133;49.626;9.680;2024-01-10T11:36:25;1.40;66.30
298;DHT22;133;49.626;9.680;2024-01-10T11:41:33;2.00;65.10
298;DHT22;133;49.626;9.680;2024-01-10T11:46:42;2.20;64.10
298;DHT22;133;49.626;9.680;2024-01-10T11:49:12;2.30;63.50
298;DHT22;133;49.626;9.680;2024-01-10T11:51:40;2.40;63.30
298;DHT22;133;49.626;9.680;2024-01-10T11:54:10;2.20;63.30
298;DHT22;133;49.626;9.680;2024-01-10T11:56:43;2.10;63.70
298;DHT22;133;49.626;9.680;2024-01-10T11:59:11;2.20;63.60
298;DHT22;133;49.626;9.680;2024-01-10T12:01:38;2.40;63.20
298;DHT22;133;49.626;9.680;2024-01-10T12:04:04;2.70;63.00
298;DHT22;133;49.626;9.680;2024-01-10T12:06:31;3.30;61.90
298;DHT22;133;49.626;9.680;2024-01-10T12:08:57;4.10;60.20
298;DHT22;133;49.626;9.680;2024-01-10T12:11:23;4.70;59.20
298;DHT22;133;49.626;9.680;2024-01-10T12:13:49;5.50;57.70
298;DHT22;133;49.626;9.680;2024-01-10T12:16:15;6.30;56.20
298;DHT22;133;49.626;9.680;2024-01-10T12:18:42;7.00;54.20
298;DHT22;133;49.626;9.680;2024-01-10T12:21:07;7.40;53.50
298;DHT22;133;49.626;9.680;2024-01-10T12:23:37;7.60;52.50
298;DHT22;133;49.626;9.680;2024-01-10T12:26:10;7.70;52.10
298;DHT22;133;49.626;9.680;2024-01-10T12:28:39;7.30;51.80
298;DHT22;133;49.626;9.680;2024-01-10T12:31:05;7.60;52.50
298;DHT22;133;49.626;9.680;2024-01-10T12:33:34;7.90;51.40
298;DHT22;133;49.626;9.680;2024-01-10T12:36:12;8.10;51.90
298;DHT22;133;49.626;9.680;2024-01-10T12:38:40;8.00;51.50
298;DHT22;133;49.626;9.680;2024-01-10T12:41:06;7.40;52.30
298;DHT22;133;49.626;9.680;2024-01-10T12:43:34;7.60;51.80
298;DHT22;133;49.626;9.680;2024-01-10T12:46:18;7.40;52.20
298;DHT22;133;49.626;9.680;2024-01-10T12:48:44;7.60;52.30
298;DHT22;133;49.626;9.680;2024-01-10T12:51:10;7.70;51.70
298;DHT22;133;49.626;9.680;2024-01-10T12:53:38;7.70;52.30
298;DHT22;133;49.626;9.680;2024-01-10T12:56:05;7.60;52.10
298;DHT22;133;49.626;9.680;2024-01-10T12:58:31;7.40;52.20
298;DHT22;133;49.626;9.680;2024-01-10T13:00:56;7.00;52.60
298;DHT22;133;49.626;9.680;2024-01-10T13:03:23;6.70;53.60
298;DHT22;133;49.626;9.680;2024-01-10T13:05:50;6.60;54.30
298;DHT22;133;49.626;9.680;2024-01-10T13:08:15;6.60;53.70
298;DHT22;133;49.626;9.680;2024-01-10T13:10:41;6.30;53.80
298;DHT22;133;49.626;9.680;2024-01-10T13:13:07;6.10;55.00
298;DHT22;133;49.626;9.680;2024-01-10T13:15:33;6.10;55.00
298;DHT22;133;49.626;9.680;2024-01-10T13:17:58;6.10;55.50
298;DHT22;133;49.626;9.680;2024-01-10T13:20:25;6.00;55.00
298;DHT22;133;49.626;9.680;2024-01-10T13:22:51;5.80;55.60
298;DHT22;133;49.626;9.680;2024-01-10T13:25:17;5.10;56.10
298;DHT22;133;49.626;9.680;2024-01-10T13:27:43;4.90;57.10
298;DHT22;133;49.626;9.680;2024-01-10T13:30:09;5.10;58.20
298;DHT22;133;49.626;9.680;2024-01-10T13:32:37;5.20;57.80
298;DHT22;133;49.626;9.680;2024-01-10T13:35:04;5.50;57.50
298;DHT22;133;49.626;9.680;2024-01-10T13:37:29;5.40;57.20
298;DHT22;133;49.626;9.680;2024-01-10T13:39:56;5.30;57.20
298;DHT22;133;49.626;9.680;2024-01-10T13:42:22;5.40;57.20
298;DHT22;133;49.626;9.680;2024-01-10T13:44:49;5.50;56.80
298;DHT22;133;49.626;9.680;2024-01-10T13:47:15;5.10;57.60
298;DHT22;133;49.626;9.680;2024-01-10T13:49:42;4.90;58.50
298;DHT22;133;49.626;9.680;2024-01-10T13:52:08;4.90;58.50
298;DHT22;133;49.626;9.680;2024-01-10T13:54:34;5.10;58.00
298;DHT22;133;49.626;9.680;2024-01-10T13:56:59;5.20;57.80
298;DHT22;133;49.626;9.680;2024-01-10T13:59:25;5.10;58.20
298;DHT22;133;49.626;9.680;2024-01-10T14:01:50;5.10;58.00
298;DHT22;133;49.626;9.680;2024-01-10T14:04:16;5.00;58.40
298;DHT22;133;49.626;9.680;2024-01-10T14:06:42;4.90;58.60
298;DHT22;133;49.626;9.680;2024-01-10T14:09:07;4.90;58.50
298;DHT22;133;49.626;9.680;2024-01-10T14:11:35;4.70;58.40
298;DHT22;133;49.626;9.680;2024-01-10T14:14:00;4.90;59.10
298;DHT22;133;49.626;9.680;2024-01-10T14:16:27;4.60;59.10
298;DHT22;133;49.626;9.680;2024-01-10T14:18:53;4.50;59.90
298;DHT22;133;49.626;9.680;2024-01-10T14:21:21;4.50;59.90
298;DHT22;133;49.626;9.680;2024-01-10T14:23:47;4.40;60.10
298;DHT22;133;49.626;9.680;2024-01-10T14:26:14;4.60;60.40
298;DHT22;133;49.626;9.680;2024-01-10T14:28:39;4.60;60.00
298;DHT22;133;49.626;9.680;2024-01-10T14:31:05;4.50;59.90
298;DHT22;133;49.626;9.680;2024-01-10T14:33:31;4.60;60.40
298;DHT22;133;49.626;9.680;2024-01-10T14:35:56;4.70;59.40
298;DHT22;133;49.626;9.680;2024-01-10T14:38:22;4.50;59.90
298;DHT22;133;49.626;9.680;2024-01-10T14:40:48;4.60;60.30
298;DHT22;133;49.626;9.680;2024-01-10T14:43:13;4.70;59.80
298;DHT22;133;49.626;9.680;2024-01-10T14:45:39;4.80;60.10
298;DHT22;133;49.626;9.680;2024-01-10T14:48:05;4.90;59.70
298;DHT22;133;49.626;9.680;2024-01-10T14:50:30;4.90;59.10
298;DHT22;133;49.626;9.680;2024-01-10T14:52:56;4.90;59.20
298;DHT22;133;49.626;9.680;2024-01-10T14:55:24;4.80;59.20
298;DHT22;133;49.626;9.680;2024-01-10T14:57:50;4.80;59.60
298;DHT22;133;49.626;9.680;2024-01-10T15:00:16;4.70;59.50
298;DHT22;133;49.626;9.680;2024-01-10T15:02:44;4.80;59.60
298;DHT22;133;49.626;9.680;2024-01-10T15:05:11;4.70;59.40
298;DHT22;133;49.626;9.680;2024-01-10T15:07:37;4.60;59.50
298;DHT22;133;49.626;9.680;2024-01-10T15:10:03;4.50;59.60
298;DHT22;133;49.626;9.680;2024-01-10T15:12:29;4.30;60.00
298;DHT22;133;49.626;9.680;2024-01-10T15:14:54;4.20;60.30
298;DHT22;133;49.626;9.680;2024-01-10T15:17:20;4.00;60.70
298;DHT22;133;49.626;9.680;2024-01-10T15:19:46;3.80;61.00
298;DHT22;133;49.626;9.680;2024-01-10T15:22:11;3.60;61.50
298;DHT22;133;49.626;9.680;2024-01-10T15:24:37;3.40;62.10
298;DHT22;133;49.626;9.680;2024-01-10T15:27:06;3.10;62.50
298;DHT22;133;49.626;9.680;2024-01-10T15:29:34;3.00;63.10
298;DHT22;133;49.626;9.680;2024-01-10T15:31:59;2.80;63.60
298;DHT22;133;49.626;9.680;2024-01-10T15:34:25;2.60;64.50
298;DHT22;133;49.626;9.680;2024-01-10T15:36:51;2.50;64.70
298;DHT22;133;49.626;9.680;2024-01-10T15:39:17;2.30;65.50
298;DHT22;133;49.626;9.680;2024-01-10T15:41:46;2.10;66.40
298;DHT22;133;49.626;9.680;2024-01-10T15:44:12;2.00;66.70
298;DHT22;133;49.626;9.680;2024-01-10T15:46:37;1.70;67.60
298;DHT22;133;49.626;9.680;2024-01-10T15:49:03;1.70;67.60
298;DHT22;133;49.626;9.680;2024-01-10T15:51:29;1.50;68.50
298;DHT22;133;49.626;9.680;2024-01-10T15:53:55;1.30;69.10
298;DHT22;133;49.626;9.680;2024-01-10T15:56:26;1.30;69.60
298;DHT22;133;49.626;9.680;2024-01-10T15:58:52;1.10;69.60
298;DHT22;133;49.626;9.680;2024-01-10T16:01:18;1.10;70.30
298;DHT22;133;49.626;9.680;2024-01-10T16:03:44;1.00;70.60
298;DHT22;133;49.626;9.680;2024-01-10T16:06:10;0.90;71.20
298;DHT22;133;49.626;9.680;2024-01-10T16:08:36;0.90;71.40
298;DHT22;133;49.626;9.680;2024-01-10T16:11:02;0.80;71.70
298;DHT22;133;49.626;9.680;2024-01-10T16:13:28;0.80;72.20
298;DHT22;133;49.626;9.680;2024-01-10T16:15:54;0.60;72.80
298;DHT22;133;49.626;9.680;2024-01-10T16:18:23;0.60;72.80
298;DHT22;133;49.626;9.680;2024-01-10T16:20:49;0.50;72.70
298;DHT22;133;49.626;9.680;2024-01-10T16:23:15;0.40;72.80
298;DHT22;133;49.626;9.680;2024-01-10T16:25:40;0.40;72.70
298;DHT22;133;49.626;9.680;2024-01-10T16:28:06;0.30;73.40
298;DHT22;133;49.626;9.680;2024-01-10T16:30:32;0.20;74.10
298;DHT22;133;49.626;9.680;2024-01-10T16:32:58;0.20;74.20
298;DHT22;133;49.626;9.680;2024-01-10T16:35:23;0.20;74.20
298;DHT22;133;49.626;9.680;2024-01-10T16:37:49;0.10;74.80
298;DHT22;133;49.626;9.680;2024-01-10T16:40:15;0.10;74.70
298;DHT22;133;49.626;9.680;2024-01-10T16:42:44;0.00;75.10
298;DHT22;133;49.626;9.680;2024-01-10T16:45:10;0.00;74.90
298;DHT22;133;49.626;9.680;2024-01-10T16:47:37;0.00;74.70
298;DHT22;133;49.626;9.680;2024-01-10T16:50:03;-0.10;75.50
298;DHT22;133;49.626;9.680;2024-01-10T16:52:29;-0.10;75.50
298;DHT22;133;49.626;9.680;2024-01-10T16:54:55;-0.10;75.10
298;DHT22;133;49.626;9.680;2024-01-10T16:57:21;-0.10;75.30
298;DHT22;133;49.626;9.680;2024-01-10T16:59:47;-0.20;76.00
298;DHT22;133;49.626;9.680;2024-01-10T17:02:13;-0.20;75.80